sensor_id;sensor_type;location;lat;lon;timestamp;temperature;humidity
21403;DHT22;10862;51.886;17.078;2023-02-12T00:02:15;5.70;99.90
21403;DHT22;10862;51.886;17.078;2023-02-12T00:04:41;5.70;99.90
21403;DHT22;10862;51.886;17.078;2023-02-12T00:07:07;5.60;99.90
21403;DHT22;10862;51.886;17.078;2023-02-12T00:09:32;5.60;99.90
21403;DHT22;10862;51.886;17.078;2023-02-12T00:11:58;5.60;99.90
21403;DHT22;10862;51.886;17.078;2023-02-12T00:14:24;5.60;99.90
21403;DHT22;10862;51.886;17.078;2023-02-12T00:16:50;5.60;99.90
21403;DHT22;10862;51.886;17.078;2023-02-12T00:19:16;5.60;99.90
21403;DHT22;10862;51.886;17.078;2023-02-12T00:21:41;5.50;99.90
21403;DHT22;10862;51.886;17.078;2023-02-12T00:24:07;5.50;99.90
21403;DHT22;10862;51.886;17.078;2023-02-12T00:26:34;5.50;99.90
21403;DHT22;10862;51.886;17.078;2023-02-12T00:29:00;5.50;99.90
21403;DHT22;10862;51.886;17.078;2023-02-12T00:31:28;5.50;99.90
21403;DHT22;10862;51.886;17.078;2023-02-12T00:33:54;5.50;99.90
21403;DHT22;10862;51.886;17.078;2023-02-12T00:36:22;5.50;99.90
21403;DHT22;10862;51.886;17.078;2023-02-12T00:38:51;5.50;99.90
21403;DHT22;10862;51.886;17.078;2023-02-12T00:41:17;5.40;99.90
21403;DHT22;10862;51.886;17.078;2023-02-12T00:43:43;5.40;99.90
21403;DHT22;10862;51.886;17.078;2023-02-12T00:46:09;5.40;99.90
21403;DHT22;10862;51.886;17.078;2023-02-12T00:48:36;5.30;99.90
21403;DHT22;10862;51.886;17.078;2023-02-12T00:51:02;5.30;99.90
21403;DHT22;10862;51.886;17.078;2023-02-12T00:53:28;5.30;99.90
21403;DHT22;10862;51.886;17.078;2023-02-12T00:55:54;5.30;99.90
21403;DHT22;10862;51.886;17.078;2023-02-12T00:58:20;5.30;99.90
21403;DHT22;10862;51.886;17.078;2023-02-12T01:00:46;5.40;99.90
21403;DHT22;10862;51.886;17.078;2023-02-12T01:03:12;5.40;99.90
21403;DHT22;10862;51.886;17.078;2023-02-12T01:05:38;5.30;99.90
21403;DHT22;10862;51.886;17.078;2023-02-12T01:08:04;5.30;99.90
21403;DHT22;10862;51.886;17.078;2023-02-12T01:10:30;5.30;99.90
21403;DHT22;10862;51.886;17.078;2023-02-12T01:13:01;5.30;99.90
21403;DHT22;10862;51.886;17.078;2023-02-12T01:15:27;5.30;99.90
21403;DHT22;10862;51.886;17.078;2023-02-12T01:17:53;5.30;99.90
21403;DHT22;10862;51.886;17.078;2023-02-12T01:20:21;5.30;99.90
21403;DHT22;10862;51.886;17.078;2023-02-12T01:22:47;5.30;99.90
21403;DHT22;10862;51.886;17.078;2023-02-12T01:25:13;5.30;99.90
21403;DHT22;10862;51.886;17.078;2023-02-12T01:27:39;5.20;99.90
21403;DHT22;10862;51.886;17.078;2023-02-12T01:30:07;5.30;99.90
21403;DHT22;10862;51.886;17.078;2023-02-12T01:32:35;5.20;99.90
21403;DHT22;10862;51.886;17.078;2023-02-12T01:35:01;5.20;99.90
21403;DHT22;10862;51.886;17.078;2023-02-12T01:37:26;5.20;99.90
21403;DHT22;10862;51.886;17.078;2023-02-12T01:39:52;5.20;99.90
21403;DHT22;10862;51.886;17.078;2023-02-12T01:42:18;5.20;99.90
21403;DHT22;10862;51.886;17.078;2023-02-12T01:47:35;5.10;99.90
21403;DHT22;10862;51.886;17.078;2023-02-12T01:50:01;5.10;99.90
21403;DHT22;10862;51.886;17.078;2023-02-12T01:52:32;5.10;99.90
21403;DHT22;10862;51.886;17.078;2023-02-12T01:55:01;5.10;99.90
21403;DHT22;10862;51.886;17.078;2023-02-12T01:57:31;5.10;99.90
21403;DHT22;10862;51.886;17.078;2023-02-12T02:00:00;5.10;99.90
21403;DHT22;10862;51.886;17.078;2023-02-12T02:02:27;5.10;99.90
21403;DHT22;10862;51.886;17.078;2023-02-12T02:05:00;5.10;99.90
21403;DHT22;10862;51.886;17.078;2023-02-12T02:07:27;5.00;99.90
21403;DHT22;10862;51.886;17.078;2023-02-12T02:09:53;5.00;99.90
21403;DHT22;10862;51.886;17.078;2023-02-12T02:12:20;5.00;99.90
21403;DHT22;10862;51.886;17.078;2023-02-12T02:15:05;5.00;99.90
21403;DHT22;10862;51.886;17.078;2023-02-12T02:18:02;5.00;99.90
21403;DHT22;10862;51.886;17.078;2023-02-12T02:31:42;4.90;99.90
21403;DHT22;10862;51.886;17.078;2023-02-12T02:34:28;4.80;99.90
21403;DHT22;10862;51.886;17.078;2023-02-12T02:40:06;4.80;99.90
21403;DHT22;10862;51.886;17.078;2023-02-12T02:42:43;4.80;99.90
21403;DHT22;10862;51.886;17.078;2023-02-12T02:45:25;4.80;99.90
21403;DHT22;10862;51.886;17.078;2023-02-12T02:48:01;4.70;99.90
21403;DHT22;10862;51.886;17.078;2023-02-12T02:50:30;4.70;99.90
21403;DHT22;10862;51.886;17.078;2023-02-12T02:53:03;4.70;99.90
21403;DHT22;10862;51.886;17.078;2023-02-12T02:55:36;4.70;99.90
21403;DHT22;10862;51.886;17.078;2023-02-12T02:58:12;4.70;99.90
21403;DHT22;10862;51.886;17.078;2023-02-12T03:00:58;4.60;99.90
21403;DHT22;10862;51.886;17.078;2023-02-12T03:06:26;4.60;99.90
21403;DHT22;10862;51.886;17.078;2023-02-12T03:09:01;4.60;99.90
21403;DHT22;10862;51.886;17.078;2023-02-12T03:11:31;4.70;99.90
21403;DHT22;10862;51.886;17.078;2023-02-12T03:14:20;4.70;99.90
21403;DHT22;10862;51.886;17.078;2023-02-12T03:19:23;4.60;99.90
21403;DHT22;10862;51.886;17.078;2023-02-12T03:22:11;4.60;99.90
21403;DHT22;10862;51.886;17.078;2023-02-12T03:24:49;4.60;99.90
21403;DHT22;10862;51.886;17.078;2023-02-12T03:27:22;4.60;99.90
21403;DHT22;10862;51.886;17.078;2023-02-12T03:29:51;4.60;99.90
21403;DHT22;10862;51.886;17.078;2023-02-12T03:37:51;4.60;99.90
21403;DHT22;10862;51.886;17.078;2023-02-12T03:40:33;4.50;99.90
21403;DHT22;10862;51.886;17.078;2023-02-12T03:54:00;4.50;99.90
21403;DHT22;10862;51.886;17.078;2023-02-12T03:59:22;4.50;99.90
21403;DHT22;10862;51.886;17.078;2023-02-12T04:01:51;4.50;99.90
21403;DHT22;10862;51.886;17.078;2023-02-12T04:04:17;4.50;99.90
21403;DHT22;10862;51.886;17.078;2023-02-12T04:06:45;4.50;99.90
21403;DHT22;10862;51.886;17.078;2023-02-12T04:09:13;4.50;99.90
21403;DHT22;10862;51.886;17.078;2023-02-12T04:25:54;4.50;99.90
21403;DHT22;10862;51.886;17.078;2023-02-12T04:31:11;4.50;99.90
21403;DHT22;10862;51.886;17.078;2023-02-12T04:33:48;4.40;99.90
21403;DHT22;10862;51.886;17.078;2023-02-12T04:36:22;4.50;99.90
21403;DHT22;10862;51.886;17.078;2023-02-12T04:38:54;4.40;99.90
21403;DHT22;10862;51.886;17.078;2023-02-12T04:41:22;4.40;99.90
21403;DHT22;10862;51.886;17.078;2023-02-12T04:43:48;4.40;99.90
21403;DHT22;10862;51.886;17.078;2023-02-12T04:46:14;4.40;99.90
21403;DHT22;10862;51.886;17.078;2023-02-12T04:48:57;4.40;99.90
21403;DHT22;10862;51.886;17.078;2023-02-12T04:51:23;4.40;99.90
21403;DHT22;10862;51.886;17.078;2023-02-12T04:53:49;4.40;99.90
21403;DHT22;10862;51.886;17.078;2023-02-12T04:56:15;4.40;99.90
21403;DHT22;10862;51.886;17.078;2023-02-12T04:58:42;4.40;99.90
21403;DHT22;10862;51.886;17.078;2023-02-12T05:01:08;4.40;99.90
21403;DHT22;10862;51.886;17.078;2023-02-12T05:03:35;4.40;99.90
21403;DHT22;10862;51.886;17.078;2023-02-12T05:06:05;4.40;99.90
21403;DHT22;10862;51.886;17.078;2023-02-12T05:08:31;4.40;99.90
21403;DHT22;10862;51.886;17.078;2023-02-12T05:11:05;4.40;99.90
21403;DHT22;10862;51.886;17.078;2023-02-12T05:13:32;4.40;99.90
21403;DHT22;10862;51.886;17.078;2023-02-12T05:15:58;4.40;99.90
21403;DHT22;10862;51.886;17.078;2023-02-12T05:18:23;4.40;99.90
21403;DHT22;10862;51.886;17.078;2023-02-12T05:20:58;4.40;99.90
21403;DHT22;10862;51.886;17.078;2023-02-12T05:23:32;4.30;99.90
21403;DHT22;10862;51.886;17.078;2023-02-12T05:26:00;4.30;99.90
21403;DHT22;10862;51.886;17.078;2023-02-12T05:28:27;4.30;99.90
21403;DHT22;10862;51.886;17.078;2023-02-12T05:30:52;4.30;99.90
21403;DHT22;10862;51.886;17.078;2023-02-12T05:33:18;4.30;99.90
21403;DHT22;10862;51.886;17.078;2023-02-12T05:35:44;4.30;99.90
21403;DHT22;10862;51.886;17.078;2023-02-12T05:38:09;4.30;99.90
21403;DHT22;10862;51.886;17.078;2023-02-12T05:40:35;4.30;99.90
21403;DHT22;10862;51.886;17.078;2023-02-12T05:43:01;4.30;99.90
21403;DHT22;10862;51.886;17.078;2023-02-12T05:45:27;4.30;99.90
21403;DHT22;10862;51.886;17.078;2023-02-12T05:47:55;4.30;99.90
21403;DHT22;10862;51.886;17.078;2023-02-12T05:50:21;4.30;99.90
21403;DHT22;10862;51.886;17.078;2023-02-12T05:52:47;4.30;99.90
21403;DHT22;10862;51.886;17.078;2023-02-12T05:55:13;4.30;99.90
21403;DHT22;10862;51.886;17.078;2023-02-12T05:57:39;4.30;99.90
21403;DHT22;10862;51.886;17.078;2023-02-12T06:00:06;4.30;99.90
21403;DHT22;10862;51.886;17.078;2023-02-12T06:02:35;4.30;99.90
21403;DHT22;10862;51.886;17.078;2023-02-12T06:05:02;4.20;99.90
21403;DHT22;10862;51.886;17.078;2023-02-12T06:07:27;4.20;99.90
21403;DHT22;10862;51.886;17.078;2023-02-12T06:09:53;4.20;99.90
21403;DHT22;10862;51.886;17.078;2023-02-12T06:12:20;4.40;99.90
21403;DHT22;10862;51.886;17.078;2023-02-12T06:14:45;4.30;99.90
21403;DHT22;10862;51.886;17.078;2023-02-12T06:17:11;4.30;99.90
21403;DHT22;10862;51.886;17.078;2023-02-12T06:19:37;4.30;99.90
21403;DHT22;10862;51.886;17.078;2023-02-12T06:22:03;4.20;99.90
21403;DHT22;10862;51.886;17.078;2023-02-12T06:24:29;4.20;99.90
21403;DHT22;10862;51.886;17.078;2023-02-12T06:26:55;4.20;99.90
21403;DHT22;10862;51.886;17.078;2023-02-12T06:29:21;4.20;99.90
21403;DHT22;10862;51.886;17.078;2023-02-12T06:31:47;4.30;99.90
21403;DHT22;10862;51.886;17.078;2023-02-12T06:34:14;4.00;99.90
21403;DHT22;10862;51.886;17.078;2023-02-12T06:36:43;3.90;99.90
21403;DHT22;10862;51.886;17.078;2023-02-12T06:39:13;3.90;99.90
21403;DHT22;10862;51.886;17.078;2023-02-12T06:41:39;3.70;99.90
21403;DHT22;10862;51.886;17.078;2023-02-12T06:44:05;3.60;99.90
21403;DHT22;10862;51.886;17.078;2023-02-12T06:46:31;3.70;99.90
21403;DHT22;10862;51.886;17.078;2023-02-12T06:48:59;3.60;99.90
21403;DHT22;10862;51.886;17.078;2023-02-12T06:51:26;3.70;99.90
21403;DHT22;10862;51.886;17.078;2023-02-12T06:53:53;3.70;99.90
21403;DHT22;10862;51.886;17.078;2023-02-12T06:56:20;3.70;99.90
21403;DHT22;10862;51.886;17.078;2023-02-12T06:58:51;3.70;99.90
21403;DHT22;10862;51.886;17.078;2023-02-12T07:01:23;3.70;99.90
21403;DHT22;10862;51.886;17.078;2023-02-12T07:03:58;3.70;99.90
21403;DHT22;10862;51.886;17.078;2023-02-12T07:06:25;3.70;99.90
21403;DHT22;10862;51.886;17.078;2023-02-12T07:08:51;3.60;99.90
21403;DHT22;10862;51.886;17.078;2023-02-12T07:11:17;3.60;99.90
21403;DHT22;10862;51.886;17.078;2023-02-12T07:13:44;3.60;99.90
21403;DHT22;10862;51.886;17.078;2023-02-12T07:16:12;3.60;99.90
21403;DHT22;10862;51.886;17.078;2023-02-12T07:18:38;3.60;99.90
21403;DHT22;10862;51.886;17.078;2023-02-12T07:21:05;3.60;99.90
21403;DHT22;10862;51.886;17.078;2023-02-12T07:23:31;3.60;99.90
21403;DHT22;10862;51.886;17.078;2023-02-12T07:26:00;3.60;99.90
21403;DHT22;10862;51.886;17.078;2023-02-12T07:28:26;3.60;99.90
21403;DHT22;10862;51.886;17.078;2023-02-12T07:30:53;3.60;99.90
21403;DHT22;10862;51.886;17.078;2023-02-12T07:33:19;3.60;99.90
21403;DHT22;10862;51.886;17.078;2023-02-12T07:35:45;3.70;99.90
21403;DHT22;10862;51.886;17.078;2023-02-12T07:38:11;3.70;99.90
21403;DHT22;10862;51.886;17.078;2023-02-12T07:40:37;3.70;99.90
21403;DHT22;10862;51.886;17.078;2023-02-12T07:43:03;3.70;99.90
21403;DHT22;10862;51.886;17.078;2023-02-12T07:45:29;3.80;99.90
21403;DHT22;10862;51.886;17.078;2023-02-12T07:47:54;3.70;99.90
21403;DHT22;10862;51.886;17.078;2023-02-12T07:50:20;3.70;99.90
21403;DHT22;10862;51.886;17.078;2023-02-12T07:52:48;3.80;99.90
21403;DHT22;10862;51.886;17.078;2023-02-12T07:55:14;3.80;99.90
21403;DHT22;10862;51.886;17.078;2023-02-12T07:57:40;3.80;99.90
21403;DHT22;10862;51.886;17.078;2023-02-12T08:00:07;3.70;99.90
21403;DHT22;10862;51.886;17.078;2023-02-12T08:02:33;3.70;99.90
21403;DHT22;10862;51.886;17.078;2023-02-12T08:04:59;3.70;99.90
21403;DHT22;10862;51.886;17.078;2023-02-12T08:07:25;3.70;99.90
21403;DHT22;10862;51.886;17.078;2023-02-12T08:09:50;3.80;99.90
21403;DHT22;10862;51.886;17.078;2023-02-12T08:12:17;3.80;99.90
21403;DHT22;10862;51.886;17.078;2023-02-12T08:14:43;3.80;99.90
21403;DHT22;10862;51.886;17.078;2023-02-12T08:17:09;3.90;99.90
21403;DHT22;10862;51.886;17.078;2023-02-12T08:19:34;3.90;99.90
21403;DHT22;10862;51.886;17.078;2023-02-12T08:22:00;3.80;99.90
21403;DHT22;10862;51.886;17.078;2023-02-12T08:24:30;3.80;99.90
21403;DHT22;10862;51.886;17.078;2023-02-12T08:26:56;3.90;99.90
21403;DHT22;10862;51.886;17.078;2023-02-12T08:29:25;3.90;99.90
21403;DHT22;10862;51.886;17.078;2023-02-12T08:31:58;3.80;99.90
21403;DHT22;10862;51.886;17.078;2023-02-12T08:34:30;3.80;99.90
21403;DHT22;10862;51.886;17.078;2023-02-12T08:36:56;4.00;99.90
21403;DHT22;10862;51.886;17.078;2023-02-12T08:39:23;4.00;99.90
21403;DHT22;10862;51.886;17.078;2023-02-12T08:41:50;4.00;99.90
21403;DHT22;10862;51.886;17.078;2023-02-12T08:44:18;4.00;99.90
21403;DHT22;10862;51.886;17.078;2023-02-12T08:46:46;4.00;99.90
21403;DHT22;10862;51.886;17.078;2023-02-12T08:49:23;4.00;99.90
21403;DHT22;10862;51.886;17.078;2023-02-12T08:51:51;4.10;99.90
21403;DHT22;10862;51.886;17.078;2023-02-12T08:54:22;4.20;99.90
21403;DHT22;10862;51.886;17.078;2023-02-12T08:56:48;4.30;99.90
21403;DHT22;10862;51.886;17.078;2023-02-12T08:59:15;4.30;99.90
21403;DHT22;10862;51.886;17.078;2023-02-12T09:01:41;4.30;99.90
21403;DHT22;10862;51.886;17.078;2023-02-12T09:04:14;4.30;99.90
21403;DHT22;10862;51.886;17.078;2023-02-12T09:06:42;4.30;99.90
21403;DHT22;10862;51.886;17.078;2023-02-12T09:09:08;4.40;99.90
21403;DHT22;10862;51.886;17.078;2023-02-12T09:11:34;4.40;99.90
21403;DHT22;10862;51.886;17.078;2023-02-12T09:14:03;4.50;99.90
21403;DHT22;10862;51.886;17.078;2023-02-12T09:16:30;4.50;99.90
21403;DHT22;10862;51.886;17.078;2023-02-12T09:18:56;4.60;99.90
21403;DHT22;10862;51.886;17.078;2023-02-12T09:21:22;4.70;99.90
21403;DHT22;10862;51.886;17.078;2023-02-12T09:23:48;4.70;99.90
21403;DHT22;10862;51.886;17.078;2023-02-12T09:26:18;4.70;99.90
21403;DHT22;10862;51.886;17.078;2023-02-12T09:28:45;4.80;99.90
21403;DHT22;10862;51.886;17.078;2023-02-12T09:31:14;4.80;99.90
21403;DHT22;10862;51.886;17.078;2023-02-12T09:33:40;4.90;99.90
21403;DHT22;10862;51.886;17.078;2023-02-12T09:36:12;4.90;99.90
21403;DHT22;10862;51.886;17.078;2023-02-12T09:38:38;5.00;99.90
21403;DHT22;10862;51.886;17.078;2023-02-12T09:45:05;5.30;99.90
21403;DHT22;10862;51.886;17.078;2023-02-12T09:50:39;5.30;99.90
21403;DHT22;10862;51.886;17.078;2023-02-12T09:53:13;5.40;99.90
21403;DHT22;10862;51.886;17.078;2023-02-12T09:55:39;5.50;99.90
21403;DHT22;10862;51.886;17.078;2023-02-12T09:58:14;5.60;99.90
21403;DHT22;10862;51.886;17.078;2023-02-12T10:00:41;5.70;99.90
21403;DHT22;10862;51.886;17.078;2023-02-12T10:03:14;5.80;99.90
21403;DHT22;10862;51.886;17.078;2023-02-12T10:27:41;5.80;99.90
21403;DHT22;10862;51.886;17.078;2023-02-12T10:30:16;5.80;99.90
21403;DHT22;10862;51.886;17.078;2023-02-12T10:32:45;5.80;99.90
21403;DHT22;10862;51.886;17.078;2023-02-12T10:35:15;5.80;99.90
21403;DHT22;10862;51.886;17.078;2023-02-12T10:37:54;5.90;99.90
21403;DHT22;10862;51.886;17.078;2023-02-12T10:40:27;5.90;99.90
21403;DHT22;10862;51.886;17.078;2023-02-12T10:42:55;6.00;99.90
21403;DHT22;10862;51.886;17.078;2023-02-12T10:45:36;5.90;99.90
21403;DHT22;10862;51.886;17.078;2023-02-12T10:53:15;6.10;99.90
21403;DHT22;10862;51.886;17.078;2023-02-12T10:55:42;6.00;99.90
21403;DHT22;10862;51.886;17.078;2023-02-12T10:58:20;6.00;99.90
21403;DHT22;10862;51.886;17.078;2023-02-12T11:00:55;5.90;99.90
21403;DHT22;10862;51.886;17.078;2023-02-12T11:03:26;5.90;99.90
21403;DHT22;10862;51.886;17.078;2023-02-12T11:05:52;6.00;99.90
21403;DHT22;10862;51.886;17.078;2023-02-12T11:08:37;6.00;99.90
21403;DHT22;10862;51.886;17.078;2023-02-12T11:11:11;6.00;99.90
21403;DHT22;10862;51.886;17.078;2023-02-12T11:13:40;5.90;99.90
21403;DHT22;10862;51.886;17.078;2023-02-12T11:16:09;5.90;99.90
21403;DHT22;10862;51.886;17.078;2023-02-12T11:18:35;5.90;99.90
21403;DHT22;10862;51.886;17.078;2023-02-12T11:21:07;5.90;99.90
21403;DHT22;10862;51.886;17.078;2023-02-12T11:23:36;5.90;99.90
21403;DHT22;10862;51.886;17.078;2023-02-12T11:28:56;5.80;99.90
21403;DHT22;10862;51.886;17.078;2023-02-12T11:31:29;5.80;99.90
21403;DHT22;10862;51.886;17.078;2023-02-12T11:34:15;5.80;99.90
21403;DHT22;10862;51.886;17.078;2023-02-12T11:36:49;5.70;99.90
21403;DHT22;10862;51.886;17.078;2023-02-12T11:39:26;5.80;99.90
21403;DHT22;10862;51.886;17.078;2023-02-12T11:41:54;5.90;99.90
21403;DHT22;10862;51.886;17.078;2023-02-12T11:44:31;5.80;99.90
21403;DHT22;10862;51.886;17.078;2023-02-12T11:47:01;5.90;99.90
21403;DHT22;10862;51.886;17.078;2023-02-12T11:49:42;5.90;99.90
21403;DHT22;10862;51.886;17.078;2023-02-12T11:52:23;6.00;99.90
21403;DHT22;10862;51.886;17.078;2023-02-12T11:54:53;6.00;99.90
21403;DHT22;10862;51.886;17.078;2023-02-12T11:57:48;6.00;99.90
21403;DHT22;10862;51.886;17.078;2023-02-12T12:01:15;6.00;99.90
21403;DHT22;10862;51.886;17.078;2023-02-12T12:03:43;6.00;99.90
21403;DHT22;10862;51.886;17.078;2023-02-12T12:08:50;6.10;99.90
21403;DHT22;10862;51.886;17.078;2023-02-12T12:12:05;6.20;99.90
21403;DHT22;10862;51.886;17.078;2023-02-12T12:14:43;6.20;99.90
21403;DHT22;10862;51.886;17.078;2023-02-12T12:20:24;6.20;99.90
21403;DHT22;10862;51.886;17.078;2023-02-12T12:23:04;6.10;99.90
21403;DHT22;10862;51.886;17.078;2023-02-12T12:25:50;6.00;99.90
21403;DHT22;10862;51.886;17.078;2023-02-12T12:28:27;6.00;99.90
21403;DHT22;10862;51.886;17.078;2023-02-12T12:31:02;6.00;99.90
21403;DHT22;10862;51.886;17.078;2023-02-12T12:42:05;6.00;99.90
21403;DHT22;10862;51.886;17.078;2023-02-12T13:01:48;6.20;99.90
21403;DHT22;10862;51.886;17.078;2023-02-12T13:23:56;6.40;99.90
21403;DHT22;10862;51.886;17.078;2023-02-12T13:27:09;6.50;99.90
21403;DHT22;10862;51.886;17.078;2023-02-12T13:29:28;6.70;99.90
21403;DHT22;10862;51.886;17.078;2023-02-12T13:32:04;6.60;99.90
21403;DHT22;10862;51.886;17.078;2023-02-12T13:34:33;6.70;99.90
21403;DHT22;10862;51.886;17.078;2023-02-12T13:37:02;6.60;99.90
21403;DHT22;10862;51.886;17.078;2023-02-12T13:39:38;6.50;99.90
21403;DHT22;10862;51.886;17.078;2023-02-12T13:44:53;6.60;99.90
21403;DHT22;10862;51.886;17.078;2023-02-12T13:47:39;6.70;99.90
21403;DHT22;10862;51.886;17.078;2023-02-12T13:50:41;6.80;99.90
21403;DHT22;10862;51.886;17.078;2023-02-12T13:53:22;6.70;99.90
21403;DHT22;10862;51.886;17.078;2023-02-12T13:58:51;6.70;99.90
21403;DHT22;10862;51.886;17.078;2023-02-12T14:01:44;6.70;99.90
21403;DHT22;10862;51.886;17.078;2023-02-12T14:06:54;6.80;99.90
21403;DHT22;10862;51.886;17.078;2023-02-12T14:09:32;6.90;99.90
21403;DHT22;10862;51.886;17.078;2023-02-12T14:12:00;6.80;99.90
21403;DHT22;10862;51.886;17.078;2023-02-12T14:14:31;6.80;99.90
21403;DHT22;10862;51.886;17.078;2023-02-12T14:28:05;7.00;99.90
21403;DHT22;10862;51.886;17.078;2023-02-12T14:30:38;7.00;99.90
21403;DHT22;10862;51.886;17.078;2023-02-12T14:35:39;6.90;99.90
21403;DHT22;10862;51.886;17.078;2023-02-12T14:45:53;6.90;99.90
21403;DHT22;10862;51.886;17.078;2023-02-12T14:51:04;6.80;99.90
21403;DHT22;10862;51.886;17.078;2023-02-12T14:53:34;6.90;99.90
21403;DHT22;10862;51.886;17.078;2023-02-12T14:56:02;6.80;99.90
21403;DHT22;10862;51.886;17.078;2023-02-12T14:58:28;6.80;99.90
21403;DHT22;10862;51.886;17.078;2023-02-12T15:00:59;6.90;99.90
21403;DHT22;10862;51.886;17.078;2023-02-12T15:03:47;6.90;99.90
21403;DHT22;10862;51.886;17.078;2023-02-12T15:06:33;6.90;99.90
21403;DHT22;10862;51.886;17.078;2023-02-12T15:09:28;6.70;99.90
21403;DHT22;10862;51.886;17.078;2023-02-12T15:12:11;6.80;99.90
21403;DHT22;10862;51.886;17.078;2023-02-12T15:14:44;6.70;99.90
21403;DHT22;10862;51.886;17.078;2023-02-12T15:17:28;6.70;99.90
21403;DHT22;10862;51.886;17.078;2023-02-12T15:20:00;6.70;99.90
21403;DHT22;10862;51.886;17.078;2023-02-12T15:22:34;6.70;99.90
21403;DHT22;10862;51.886;17.078;2023-02-12T15:25:27;6.60;99.90
21403;DHT22;10862;51.886;17.078;2023-02-12T15:30:43;6.60;99.90
21403;DHT22;10862;51.886;17.078;2023-02-12T15:33:21;6.60;99.90
21403;DHT22;10862;51.886;17.078;2023-02-12T15:35:48;6.60;99.90
21403;DHT22;10862;51.886;17.078;2023-02-12T15:38:20;6.70;99.90
21403;DHT22;10862;51.886;17.078;2023-02-12T15:40:58;6.60;99.90
21403;DHT22;10862;51.886;17.078;2023-02-12T15:43:31;6.70;99.90
21403;DHT22;10862;51.886;17.078;2023-02-12T15:46:03;6.60;99.90
21403;DHT22;10862;51.886;17.078;2023-02-12T15:48:33;6.60;99.90
21403;DHT22;10862;51.886;17.078;2023-02-12T15:51:27;6.60;99.90
21403;DHT22;10862;51.886;17.078;2023-02-12T15:53:55;6.60;99.90
21403;DHT22;10862;51.886;17.078;2023-02-12T15:56:23;6.60;99.90
21403;DHT22;10862;51.886;17.078;2023-02-12T15:58:54;6.60;99.90
21403;DHT22;10862;51.886;17.078;2023-02-12T16:01:34;6.60;99.90
21403;DHT22;10862;51.886;17.078;2023-02-12T16:04:07;6.60;99.90
21403;DHT22;10862;51.886;17.078;2023-02-12T16:06:34;6.60;99.90
21403;DHT22;10862;51.886;17.078;2023-02-12T16:11:29;6.60;99.90
21403;DHT22;10862;51.886;17.078;2023-02-12T16:14:06;6.60;99.90
21403;DHT22;10862;51.886;17.078;2023-02-12T16:16:45;6.50;99.90
21403;DHT22;10862;51.886;17.078;2023-02-12T16:19:27;6.50;99.90
21403;DHT22;10862;51.886;17.078;2023-02-12T16:22:00;6.50;99.90
21403;DHT22;10862;51.886;17.078;2023-02-12T16:24:31;6.50;99.90
21403;DHT22;10862;51.886;17.078;2023-02-12T16:27:06;6.50;99.90
21403;DHT22;10862;51.886;17.078;2023-02-12T16:29:35;6.50;99.90
21403;DHT22;10862;51.886;17.078;2023-02-12T16:32:02;6.50;99.90
21403;DHT22;10862;51.886;17.078;2023-02-12T16:34:30;6.50;99.90
21403;DHT22;10862;51.886;17.078;2023-02-12T16:36:56;6.50;99.90
21403;DHT22;10862;51.886;17.078;2023-02-12T16:42:18;6.30;99.90
21403;DHT22;10862;51.886;17.078;2023-02-12T16:44:49;6.30;99.90
21403;DHT22;10862;51.886;17.078;2023-02-12T16:47:20;6.20;99.90
21403;DHT22;10862;51.886;17.078;2023-02-12T16:50:00;6.20;99.90
21403;DHT22;10862;51.886;17.078;2023-02-12T16:54:54;6.10;99.90
21403;DHT22;10862;51.886;17.078;2023-02-12T16:57:20;6.20;99.90
21403;DHT22;10862;51.886;17.078;2023-02-12T16:59:46;6.20;99.90
21403;DHT22;10862;51.886;17.078;2023-02-12T17:02:13;6.10;99.90
21403;DHT22;10862;51.886;17.078;2023-02-12T17:04:40;6.10;99.90
21403;DHT22;10862;51.886;17.078;2023-02-12T17:07:24;6.10;99.90
21403;DHT22;10862;51.886;17.078;2023-02-12T17:09:53;6.10;99.90
21403;DHT22;10862;51.886;17.078;2023-02-12T17:12:19;6.10;99.90
21403;DHT22;10862;51.886;17.078;2023-02-12T17:14:45;6.10;99.90
21403;DHT22;10862;51.886;17.078;2023-02-12T17:17:12;6.00;99.90
21403;DHT22;10862;51.886;17.078;2023-02-12T17:19:38;6.00;99.90
21403;DHT22;10862;51.886;17.078;2023-02-12T17:22:05;6.10;99.90
21403;DHT22;10862;51.886;17.078;2023-02-12T17:24:33;6.00;99.90
21403;DHT22;10862;51.886;17.078;2023-02-12T17:27:00;6.00;99.90
21403;DHT22;10862;51.886;17.078;2023-02-12T17:29:27;6.00;99.90
21403;DHT22;10862;51.886;17.078;2023-02-12T17:31:53;6.00;99.90
21403;DHT22;10862;51.886;17.078;2023-02-12T17:34:21;5.90;99.90
21403;DHT22;10862;51.886;17.078;2023-02-12T17:36:47;5.90;99.90
21403;DHT22;10862;51.886;17.078;2023-02-12T17:39:13;6.00;99.90
21403;DHT22;10862;51.886;17.078;2023-02-12T17:41:40;5.90;99.90
21403;DHT22;10862;51.886;17.078;2023-02-12T17:44:06;5.90;99.90
21403;DHT22;10862;51.886;17.078;2023-02-12T17:46:32;6.00;99.90
21403;DHT22;10862;51.886;17.078;2023-02-12T17:48:58;6.00;99.90
21403;DHT22;10862;51.886;17.078;2023-02-12T17:51:24;6.00;99.90
21403;DHT22;10862;51.886;17.078;2023-02-12T17:53:50;6.10;99.90
21403;DHT22;10862;51.886;17.078;2023-02-12T17:56:19;6.10;99.90
21403;DHT22;10862;51.886;17.078;2023-02-12T17:58:46;6.00;99.90
21403;DHT22;10862;51.886;17.078;2023-02-12T18:01:15;6.00;99.90
21403;DHT22;10862;51.886;17.078;2023-02-12T18:03:42;5.90;99.90
21403;DHT22;10862;51.886;17.078;2023-02-12T18:06:08;5.90;99.90
21403;DHT22;10862;51.886;17.078;2023-02-12T18:08:39;6.00;99.90
21403;DHT22;10862;51.886;17.078;2023-02-12T18:11:06;5.90;99.90
21403;DHT22;10862;51.886;17.078;2023-02-12T18:13:33;5.90;99.90
21403;DHT22;10862;51.886;17.078;2023-02-12T18:15:59;5.90;99.90
21403;DHT22;10862;51.886;17.078;2023-02-12T18:18:24;5.90;99.90
21403;DHT22;10862;51.886;17.078;2023-02-12T18:20:50;5.90;99.90
21403;DHT22;10862;51.886;17.078;2023-02-12T18:23:16;5.90;99.90
21403;DHT22;10862;51.886;17.078;2023-02-12T18:25:42;5.90;99.90
21403;DHT22;10862;51.886;17.078;2023-02-12T18:28:09;5.90;99.90
21403;DHT22;10862;51.886;17.078;2023-02-12T18:30:35;5.90;99.90
21403;DHT22;10862;51.886;17.078;2023-02-12T18:33:06;5.90;99.90
21403;DHT22;10862;51.886;17.078;2023-02-12T18:35:33;5.90;99.90
21403;DHT22;10862;51.886;17.078;2023-02-12T18:37:58;5.90;99.90
21403;DHT22;10862;51.886;17.078;2023-02-12T18:40:24;5.90;99.90
21403;DHT22;10862;51.886;17.078;2023-02-12T18:42:51;5.90;99.90
21403;DHT22;10862;51.886;17.078;2023-02-12T18:45:16;5.90;99.90
21403;DHT22;10862;51.886;17.078;2023-02-12T18:47:43;5.90;99.90
21403;DHT22;10862;51.886;17.078;2023-02-12T18:50:10;5.90;99.90
21403;DHT22;10862;51.886;17.078;2023-02-12T18:52:36;5.90;99.90
21403;DHT22;10862;51.886;17.078;2023-02-12T18:55:03;5.90;99.90
21403;DHT22;10862;51.886;17.078;2023-02-12T18:57:29;5.80;99.90
21403;DHT22;10862;51.886;17.078;2023-02-12T18:59:55;5.80;99.90